sensor_id;sensor_type;location;lat;lon;timestamp;P1;durP1;ratioP1;P2;durP2;ratioP2
31652;SDS011;18261;53.648;9.910;2024-02-16T00:00:12;18.77;;;6.75;;
31652;SDS011;18261;53.648;9.910;2024-02-16T00:02:39;24.20;;;7.20;;
31652;SDS011;18261;53.648;9.910;2024-02-16T00:05:06;17.40;;;6.00;;
31652;SDS011;18261;53.648;9.910;2024-02-16T00:07:33;16.08;;;6.35;;
31652;SDS011;18261;53.648;9.910;2024-02-16T00:09:59;13.32;;;6.00;;
31652;SDS011;18261;53.648;9.910;2024-02-16T00:12:25;13.77;;;6.20;;
31652;SDS011;18261;53.648;9.910;2024-02-16T00:14:51;20.40;;;6.28;;
31652;SDS011;18261;53.648;9.910;2024-02-16T00:17:17;13.48;;;5.85;;
31652;SDS011;18261;53.648;9.910;2024-02-16T00:19:43;13.15;;;5.10;;
31652;SDS011;18261;53.648;9.910;2024-02-16T00:22:09;13.95;;;5.63;;
31652;SDS011;18261;53.648;9.910;2024-02-16T00:24:35;15.60;;;5.80;;
31652;SDS011;18261;53.648;9.910;2024-02-16T00:27:01;18.92;;;5.35;;
31652;SDS011;18261;53.648;9.910;2024-02-16T00:29:30;12.73;;;4.75;;
31652;SDS011;18261;53.648;9.910;2024-02-16T00:31:57;13.68;;;5.00;;
31652;SDS011;18261;53.648;9.910;2024-02-16T00:34:24;14.45;;;5.28;;
31652;SDS011;18261;53.648;9.910;2024-02-16T00:36:50;17.17;;;5.13;;
31652;SDS011;18261;53.648;9.910;2024-02-16T00:39:17;13.40;;;5.15;;
31652;SDS011;18261;53.648;9.910;2024-02-16T00:41:43;16.50;;;5.00;;
31652;SDS011;18261;53.648;9.910;2024-02-16T00:44:11;13.38;;;5.45;;
31652;SDS011;18261;53.648;9.910;2024-02-16T00:46:37;11.05;;;4.80;;
31652;SDS011;18261;53.648;9.910;2024-02-16T00:49:03;16.88;;;5.25;;
31652;SDS011;18261;53.648;9.910;2024-02-16T00:51:29;13.93;;;5.10;;
31652;SDS011;18261;53.648;9.910;2024-02-16T00:53:55;15.10;;;5.10;;
31652;SDS011;18261;53.648;9.910;2024-02-16T00:56:22;14.10;;;5.05;;
31652;SDS011;18261;53.648;9.910;2024-02-16T00:58:48;14.73;;;4.55;;
31652;SDS011;18261;53.648;9.910;2024-02-16T01:01:14;15.45;;;5.43;;
31652;SDS011;18261;53.648;9.910;2024-02-16T01:03:40;15.27;;;4.63;;
31652;SDS011;18261;53.648;9.910;2024-02-16T01:06:07;16.63;;;4.60;;
31652;SDS011;18261;53.648;9.910;2024-02-16T01:08:35;13.73;;;4.28;;
31652;SDS011;18261;53.648;9.910;2024-02-16T01:11:01;13.75;;;4.50;;
31652;SDS011;18261;53.648;9.910;2024-02-16T01:13:27;14.38;;;4.90;;
31652;SDS011;18261;53.648;9.910;2024-02-16T01:15:53;11.80;;;4.50;;
31652;SDS011;18261;53.648;9.910;2024-02-16T01:18:19;15.73;;;5.50;;
31652;SDS011;18261;53.648;9.910;2024-02-16T01:20:45;13.05;;;4.60;;
31652;SDS011;18261;53.648;9.910;2024-02-16T01:23:11;13.77;;;4.25;;
31652;SDS011;18261;53.648;9.910;2024-02-16T01:25:37;17.52;;;4.55;;
31652;SDS011;18261;53.648;9.910;2024-02-16T01:28:03;11.60;;;3.80;;
31652;SDS011;18261;53.648;9.910;2024-02-16T01:30:30;13.07;;;4.22;;
31652;SDS011;18261;53.648;9.910;2024-02-16T01:32:56;11.57;;;4.50;;
31652;SDS011;18261;53.648;9.910;2024-02-16T01:35:22;15.25;;;4.22;;
31652;SDS011;18261;53.648;9.910;2024-02-16T01:37:47;15.65;;;4.10;;
31652;SDS011;18261;53.648;9.910;2024-02-16T01:40:13;11.80;;;3.90;;
31652;SDS011;18261;53.648;9.910;2024-02-16T01:42:42;17.33;;;4.20;;
31652;SDS011;18261;53.648;9.910;2024-02-16T01:45:08;9.43;;;3.85;;
31652;SDS011;18261;53.648;9.910;2024-02-16T01:47:35;10.43;;;4.18;;
31652;SDS011;18261;53.648;9.910;2024-02-16T01:50:01;12.07;;;3.97;;
31652;SDS011;18261;53.648;9.910;2024-02-16T01:52:28;11.55;;;4.45;;
31652;SDS011;18261;53.648;9.910;2024-02-16T01:54:55;17.23;;;4.63;;
31652;SDS011;18261;53.648;9.910;2024-02-16T01:57:22;19.92;;;4.15;;
31652;SDS011;18261;53.648;9.910;2024-02-16T01:59:48;21.05;;;5.60;;
31652;SDS011;18261;53.648;9.910;2024-02-16T02:02:14;15.10;;;3.58;;
31652;SDS011;18261;53.648;9.910;2024-02-16T02:04:40;10.80;;;3.70;;
31652;SDS011;18261;53.648;9.910;2024-02-16T02:07:15;11.85;;;4.00;;
31652;SDS011;18261;53.648;9.910;2024-02-16T02:09:41;27.23;;;4.35;;
31652;SDS011;18261;53.648;9.910;2024-02-16T02:12:08;12.32;;;4.30;;
31652;SDS011;18261;53.648;9.910;2024-02-16T02:14:34;11.68;;;3.80;;
31652;SDS011;18261;53.648;9.910;2024-02-16T02:17:00;12.32;;;3.90;;
31652;SDS011;18261;53.648;9.910;2024-02-16T02:19:26;16.20;;;4.00;;
31652;SDS011;18261;53.648;9.910;2024-02-16T02:21:52;18.50;;;4.18;;
31652;SDS011;18261;53.648;9.910;2024-02-16T02:24:18;9.70;;;3.95;;
31652;SDS011;18261;53.648;9.910;2024-02-16T02:26:45;14.02;;;4.13;;
31652;SDS011;18261;53.648;9.910;2024-02-16T02:29:11;14.77;;;4.07;;
31652;SDS011;18261;53.648;9.910;2024-02-16T02:31:37;13.57;;;4.03;;
31652;SDS011;18261;53.648;9.910;2024-02-16T02:34:03;10.57;;;3.95;;
31652;SDS011;18261;53.648;9.910;2024-02-16T02:36:30;15.27;;;4.30;;
31652;SDS011;18261;53.648;9.910;2024-02-16T02:38:57;12.90;;;3.78;;
31652;SDS011;18261;53.648;9.910;2024-02-16T02:41:23;11.23;;;4.00;;
31652;SDS011;18261;53.648;9.910;2024-02-16T02:43:50;10.63;;;3.40;;
31652;SDS011;18261;53.648;9.910;2024-02-16T02:46:17;11.55;;;4.18;;
31652;SDS011;18261;53.648;9.910;2024-02-16T02:48:43;11.95;;;3.80;;
31652;SDS011;18261;53.648;9.910;2024-02-16T02:51:10;12.75;;;4.13;;
31652;SDS011;18261;53.648;9.910;2024-02-16T02:53:35;8.73;;;3.58;;
31652;SDS011;18261;53.648;9.910;2024-02-16T02:56:02;10.63;;;3.30;;
31652;SDS011;18261;53.648;9.910;2024-02-16T02:58:28;14.27;;;4.47;;
31652;SDS011;18261;53.648;9.910;2024-02-16T03:00:54;13.73;;;3.55;;
31652;SDS011;18261;53.648;9.910;2024-02-16T03:03:20;15.30;;;4.28;;
31652;SDS011;18261;53.648;9.910;2024-02-16T03:05:47;13.48;;;3.75;;
31652;SDS011;18261;53.648;9.910;2024-02-16T03:08:13;12.02;;;3.85;;
31652;SDS011;18261;53.648;9.910;2024-02-16T03:10:39;7.13;;;3.40;;
31652;SDS011;18261;53.648;9.910;2024-02-16T03:13:05;10.77;;;3.85;;
31652;SDS011;18261;53.648;9.910;2024-02-16T03:15:34;15.82;;;3.85;;
31652;SDS011;18261;53.648;9.910;2024-02-16T03:18:01;13.45;;;4.30;;
31652;SDS011;18261;53.648;9.910;2024-02-16T03:20:27;13.70;;;4.13;;
31652;SDS011;18261;53.648;9.910;2024-02-16T03:22:55;13.93;;;4.13;;
31652;SDS011;18261;53.648;9.910;2024-02-16T03:25:21;15.57;;;4.50;;
31652;SDS011;18261;53.648;9.910;2024-02-16T03:27:48;11.43;;;3.75;;
31652;SDS011;18261;53.648;9.910;2024-02-16T03:30:15;12.82;;;3.95;;
31652;SDS011;18261;53.648;9.910;2024-02-16T03:32:41;15.02;;;3.97;;
31652;SDS011;18261;53.648;9.910;2024-02-16T03:35:07;12.48;;;3.78;;
31652;SDS011;18261;53.648;9.910;2024-02-16T03:37:33;13.93;;;3.67;;
31652;SDS011;18261;53.648;9.910;2024-02-16T03:39:59;13.02;;;4.47;;
31652;SDS011;18261;53.648;9.910;2024-02-16T03:42:25;11.95;;;3.72;;
31652;SDS011;18261;53.648;9.910;2024-02-16T03:44:51;13.02;;;4.38;;
31652;SDS011;18261;53.648;9.910;2024-02-16T03:47:17;14.85;;;4.03;;
31652;SDS011;18261;53.648;9.910;2024-02-16T03:49:43;9.77;;;3.70;;
31652;SDS011;18261;53.648;9.910;2024-02-16T03:52:09;8.65;;;3.90;;
31652;SDS011;18261;53.648;9.910;2024-02-16T03:54:35;15.93;;;3.75;;
31652;SDS011;18261;53.648;9.910;2024-02-16T03:57:01;12.98;;;3.90;;
31652;SDS011;18261;53.648;9.910;2024-02-16T03:59:29;12.60;;;3.75;;
31652;SDS011;18261;53.648;9.910;2024-02-16T04:01:55;14.40;;;4.07;;
31652;SDS011;18261;53.648;9.910;2024-02-16T04:04:21;14.82;;;3.72;;
31652;SDS011;18261;53.648;9.910;2024-02-16T04:06:47;8.95;;;3.30;;
31652;SDS011;18261;53.648;9.910;2024-02-16T04:09:13;16.58;;;4.03;;
31652;SDS011;18261;53.648;9.910;2024-02-16T04:11:40;10.13;;;4.05;;
31652;SDS011;18261;53.648;9.910;2024-02-16T04:14:06;13.45;;;3.90;;
31652;SDS011;18261;53.648;9.910;2024-02-16T04:16:33;17.63;;;4.05;;
31652;SDS011;18261;53.648;9.910;2024-02-16T04:18:59;10.32;;;4.00;;
31652;SDS011;18261;53.648;9.910;2024-02-16T04:21:25;7.35;;;3.22;;
31652;SDS011;18261;53.648;9.910;2024-02-16T04:23:51;11.65;;;3.72;;
31652;SDS011;18261;53.648;9.910;2024-02-16T04:26:17;8.10;;;3.30;;
31652;SDS011;18261;53.648;9.910;2024-02-16T04:28:43;9.77;;;3.35;;
31652;SDS011;18261;53.648;9.910;2024-02-16T04:31:09;8.88;;;3.10;;
31652;SDS011;18261;53.648;9.910;2024-02-16T04:33:35;10.38;;;4.07;;
31652;SDS011;18261;53.648;9.910;2024-02-16T04:36:01;10.23;;;3.50;;
31652;SDS011;18261;53.648;9.910;2024-02-16T04:38:27;11.65;;;4.20;;
31652;SDS011;18261;53.648;9.910;2024-02-16T04:40:53;11.90;;;3.47;;
31652;SDS011;18261;53.648;9.910;2024-02-16T04:43:19;11.57;;;3.78;;
31652;SDS011;18261;53.648;9.910;2024-02-16T04:45:45;14.82;;;4.07;;
31652;SDS011;18261;53.648;9.910;2024-02-16T04:48:11;11.07;;;3.90;;
31652;SDS011;18261;53.648;9.910;2024-02-16T04:50:37;11.73;;;4.10;;
31652;SDS011;18261;53.648;9.910;2024-02-16T04:53:03;14.30;;;4.00;;
31652;SDS011;18261;53.648;9.910;2024-02-16T04:55:30;12.48;;;4.40;;
31652;SDS011;18261;53.648;9.910;2024-02-16T04:57:56;9.88;;;3.80;;
31652;SDS011;18261;53.648;9.910;2024-02-16T05:00:23;10.07;;;4.13;;
31652;SDS011;18261;53.648;9.910;2024-02-16T05:02:50;12.77;;;4.22;;
31652;SDS011;18261;53.648;9.910;2024-02-16T05:05:17;16.73;;;4.22;;
31652;SDS011;18261;53.648;9.910;2024-02-16T05:07:43;15.30;;;4.03;;
31652;SDS011;18261;53.648;9.910;2024-02-16T05:10:12;8.15;;;3.13;;
31652;SDS011;18261;53.648;9.910;2024-02-16T05:12:38;13.85;;;3.60;;
31652;SDS011;18261;53.648;9.910;2024-02-16T05:15:04;11.45;;;3.55;;
31652;SDS011;18261;53.648;9.910;2024-02-16T05:17:31;14.43;;;3.83;;
31652;SDS011;18261;53.648;9.910;2024-02-16T05:19:57;18.52;;;3.80;;
31652;SDS011;18261;53.648;9.910;2024-02-16T05:22:23;9.60;;;3.47;;
31652;SDS011;18261;53.648;9.910;2024-02-16T05:24:49;9.65;;;3.88;;
31652;SDS011;18261;53.648;9.910;2024-02-16T05:27:15;11.18;;;3.80;;
31652;SDS011;18261;53.648;9.910;2024-02-16T05:29:41;6.88;;;3.35;;
31652;SDS011;18261;53.648;9.910;2024-02-16T05:32:07;10.52;;;3.67;;
31652;SDS011;18261;53.648;9.910;2024-02-16T05:34:35;10.43;;;3.47;;
31652;SDS011;18261;53.648;9.910;2024-02-16T05:37:04;11.45;;;3.80;;
31652;SDS011;18261;53.648;9.910;2024-02-16T05:39:31;18.35;;;4.30;;
31652;SDS011;18261;53.648;9.910;2024-02-16T05:42:00;10.05;;;4.22;;
31652;SDS011;18261;53.648;9.910;2024-02-16T05:44:27;11.40;;;3.92;;
31652;SDS011;18261;53.648;9.910;2024-02-16T05:46:53;8.82;;;3.40;;
31652;SDS011;18261;53.648;9.910;2024-02-16T05:49:19;7.18;;;3.03;;
31652;SDS011;18261;53.648;9.910;2024-02-16T05:51:45;15.95;;;3.65;;
31652;SDS011;18261;53.648;9.910;2024-02-16T05:54:31;12.10;;;3.88;;
31652;SDS011;18261;53.648;9.910;2024-02-16T05:56:57;9.35;;;3.55;;
31652;SDS011;18261;53.648;9.910;2024-02-16T05:59:23;12.98;;;3.70;;
31652;SDS011;18261;53.648;9.910;2024-02-16T06:01:50;9.52;;;3.20;;
31652;SDS011;18261;53.648;9.910;2024-02-16T06:04:16;9.88;;;3.25;;
31652;SDS011;18261;53.648;9.910;2024-02-16T06:06:42;7.03;;;3.67;;
31652;SDS011;18261;53.648;9.910;2024-02-16T06:09:08;15.13;;;3.47;;
31652;SDS011;18261;53.648;9.910;2024-02-16T06:11:36;7.15;;;3.55;;
31652;SDS011;18261;53.648;9.910;2024-02-16T06:14:03;13.27;;;4.07;;
31652;SDS011;18261;53.648;9.910;2024-02-16T06:16:29;11.73;;;3.63;;
31652;SDS011;18261;53.648;9.910;2024-02-16T06:18:55;10.88;;;3.95;;
31652;SDS011;18261;53.648;9.910;2024-02-16T06:21:21;11.10;;;4.13;;
31652;SDS011;18261;53.648;9.910;2024-02-16T06:23:47;9.93;;;3.80;;
31652;SDS011;18261;53.648;9.910;2024-02-16T06:26:13;14.10;;;3.38;;
31652;SDS011;18261;53.648;9.910;2024-02-16T06:28:39;15.07;;;3.88;;
31652;SDS011;18261;53.648;9.910;2024-02-16T06:31:05;11.48;;;3.65;;
31652;SDS011;18261;53.648;9.910;2024-02-16T06:33:31;11.25;;;4.25;;
31652;SDS011;18261;53.648;9.910;2024-02-16T06:35:57;8.00;;;3.75;;
31652;SDS011;18261;53.648;9.910;2024-02-16T06:38:23;9.98;;;3.83;;
31652;SDS011;18261;53.648;9.910;2024-02-16T06:40:49;13.68;;;3.60;;
31652;SDS011;18261;53.648;9.910;2024-02-16T06:43:15;11.30;;;4.10;;
31652;SDS011;18261;53.648;9.910;2024-02-16T06:45:41;12.98;;;4.13;;
31652;SDS011;18261;53.648;9.910;2024-02-16T06:48:07;12.32;;;3.60;;
31652;SDS011;18261;53.648;9.910;2024-02-16T06:50:34;9.82;;;3.45;;
31652;SDS011;18261;53.648;9.910;2024-02-16T06:53:00;17.42;;;3.30;;
31652;SDS011;18261;53.648;9.910;2024-02-16T06:55:26;10.35;;;3.50;;
31652;SDS011;18261;53.648;9.910;2024-02-16T06:57:52;14.52;;;4.05;;
31652;SDS011;18261;53.648;9.910;2024-02-16T07:00:18;11.18;;;3.63;;
31652;SDS011;18261;53.648;9.910;2024-02-16T07:02:45;11.30;;;3.40;;
31652;SDS011;18261;53.648;9.910;2024-02-16T07:05:11;10.57;;;3.55;;
31652;SDS011;18261;53.648;9.910;2024-02-16T07:07:37;11.70;;;4.20;;
31652;SDS011;18261;53.648;9.910;2024-02-16T07:10:03;9.00;;;3.75;;
31652;SDS011;18261;53.648;9.910;2024-02-16T07:12:30;9.82;;;3.50;;
31652;SDS011;18261;53.648;9.910;2024-02-16T07:14:58;7.88;;;3.08;;
31652;SDS011;18261;53.648;9.910;2024-02-16T07:17:24;12.07;;;3.70;;
31652;SDS011;18261;53.648;9.910;2024-02-16T07:19:51;13.15;;;3.35;;
31652;SDS011;18261;53.648;9.910;2024-02-16T07:22:17;13.85;;;3.28;;
31652;SDS011;18261;53.648;9.910;2024-02-16T07:24:43;13.02;;;3.88;;
31652;SDS011;18261;53.648;9.910;2024-02-16T07:27:09;10.25;;;3.67;;
31652;SDS011;18261;53.648;9.910;2024-02-16T07:29:35;12.75;;;3.53;;
31652;SDS011;18261;53.648;9.910;2024-02-16T07:32:04;8.15;;;3.13;;
31652;SDS011;18261;53.648;9.910;2024-02-16T07:34:30;13.50;;;3.42;;
31652;SDS011;18261;53.648;9.910;2024-02-16T07:36:56;13.57;;;3.75;;
31652;SDS011;18261;53.648;9.910;2024-02-16T07:39:22;12.23;;;3.70;;
31652;SDS011;18261;53.648;9.910;2024-02-16T07:41:49;11.88;;;4.20;;
31652;SDS011;18261;53.648;9.910;2024-02-16T07:44:15;10.18;;;3.92;;
31652;SDS011;18261;53.648;9.910;2024-02-16T07:46:41;10.88;;;4.10;;
31652;SDS011;18261;53.648;9.910;2024-02-16T07:49:07;11.25;;;4.20;;
31652;SDS011;18261;53.648;9.910;2024-02-16T07:51:35;15.77;;;4.13;;
31652;SDS011;18261;53.648;9.910;2024-02-16T07:54:02;16.92;;;4.00;;
31652;SDS011;18261;53.648;9.910;2024-02-16T07:56:28;12.63;;;3.50;;
31652;SDS011;18261;53.648;9.910;2024-02-16T07:58:55;11.35;;;3.53;;
31652;SDS011;18261;53.648;9.910;2024-02-16T08:01:21;14.63;;;3.55;;
31652;SDS011;18261;53.648;9.910;2024-02-16T08:03:47;8.18;;;3.67;;
31652;SDS011;18261;53.648;9.910;2024-02-16T08:06:13;11.43;;;3.50;;
31652;SDS011;18261;53.648;9.910;2024-02-16T08:08:41;11.57;;;3.53;;
31652;SDS011;18261;53.648;9.910;2024-02-16T08:11:07;15.18;;;3.30;;
31652;SDS011;18261;53.648;9.910;2024-02-16T08:13:33;12.45;;;3.17;;
31652;SDS011;18261;53.648;9.910;2024-02-16T08:15:59;5.57;;;2.55;;
31652;SDS011;18261;53.648;9.910;2024-02-16T08:18:25;13.70;;;3.25;;
31652;SDS011;18261;53.648;9.910;2024-02-16T08:20:51;9.02;;;3.50;;
31652;SDS011;18261;53.648;9.910;2024-02-16T08:23:17;9.50;;;3.00;;
31652;SDS011;18261;53.648;9.910;2024-02-16T08:25:43;9.35;;;3.03;;
31652;SDS011;18261;53.648;9.910;2024-02-16T08:28:09;8.40;;;3.15;;
31652;SDS011;18261;53.648;9.910;2024-02-16T08:30:35;8.63;;;2.97;;
31652;SDS011;18261;53.648;9.910;2024-02-16T08:33:01;10.43;;;3.63;;
31652;SDS011;18261;53.648;9.910;2024-02-16T08:35:27;9.23;;;3.35;;
31652;SDS011;18261;53.648;9.910;2024-02-16T08:37:54;16.20;;;3.63;;
31652;SDS011;18261;53.648;9.910;2024-02-16T08:40:20;7.22;;;2.67;;
31652;SDS011;18261;53.648;9.910;2024-02-16T08:42:46;6.85;;;2.67;;
31652;SDS011;18261;53.648;9.910;2024-02-16T08:45:12;8.45;;;2.90;;
31652;SDS011;18261;53.648;9.910;2024-02-16T08:47:38;9.95;;;2.65;;
31652;SDS011;18261;53.648;9.910;2024-02-16T08:50:05;9.60;;;3.05;;
31652;SDS011;18261;53.648;9.910;2024-02-16T08:52:32;16.00;;;6.05;;
31652;SDS011;18261;53.648;9.910;2024-02-16T08:54:58;8.40;;;2.72;;
31652;SDS011;18261;53.648;9.910;2024-02-16T08:57:24;6.30;;;2.97;;
31652;SDS011;18261;53.648;9.910;2024-02-16T08:59:50;10.77;;;2.70;;
31652;SDS011;18261;53.648;9.910;2024-02-16T09:02:16;9.52;;;3.08;;
31652;SDS011;18261;53.648;9.910;2024-02-16T09:04:41;6.47;;;2.60;;
31652;SDS011;18261;53.648;9.910;2024-02-16T09:07:07;10.02;;;2.45;;
31652;SDS011;18261;53.648;9.910;2024-02-16T09:09:33;6.07;;;2.58;;
31652;SDS011;18261;53.648;9.910;2024-02-16T09:11:59;7.80;;;2.50;;
31652;SDS011;18261;53.648;9.910;2024-02-16T09:14:25;10.73;;;2.80;;
31652;SDS011;18261;53.648;9.910;2024-02-16T09:16:51;11.85;;;2.90;;
31652;SDS011;18261;53.648;9.910;2024-02-16T09:19:18;9.25;;;3.17;;
31652;SDS011;18261;53.648;9.910;2024-02-16T09:21:44;10.50;;;2.90;;
31652;SDS011;18261;53.648;9.910;2024-02-16T09:24:11;11.35;;;2.60;;
31652;SDS011;18261;53.648;9.910;2024-02-16T09:26:42;8.73;;;2.90;;
31652;SDS011;18261;53.648;9.910;2024-02-16T09:29:10;13.20;;;3.28;;
31652;SDS011;18261;53.648;9.910;2024-02-16T09:31:36;11.73;;;3.15;;
31652;SDS011;18261;53.648;9.910;2024-02-16T09:34:03;9.20;;;2.35;;
31652;SDS011;18261;53.648;9.910;2024-02-16T09:36:29;7.22;;;2.30;;
31652;SDS011;18261;53.648;9.910;2024-02-16T09:38:55;9.07;;;2.25;;
31652;SDS011;18261;53.648;9.910;2024-02-16T09:41:22;7.65;;;2.95;;
31652;SDS011;18261;53.648;9.910;2024-02-16T09:43:48;10.18;;;2.70;;
31652;SDS011;18261;53.648;9.910;2024-02-16T09:46:14;8.70;;;2.50;;
31652;SDS011;18261;53.648;9.910;2024-02-16T09:48:41;11.77;;;2.97;;
31652;SDS011;18261;53.648;9.910;2024-02-16T09:51:10;12.00;;;3.50;;
31652;SDS011;18261;53.648;9.910;2024-02-16T09:53:36;15.20;;;4.50;;
31652;SDS011;18261;53.648;9.910;2024-02-16T09:56:04;9.38;;;2.83;;
31652;SDS011;18261;53.648;9.910;2024-02-16T09:58:30;9.55;;;2.97;;
31652;SDS011;18261;53.648;9.910;2024-02-16T10:00:56;12.15;;;3.00;;
31652;SDS011;18261;53.648;9.910;2024-02-16T10:03:29;11.70;;;3.47;;
31652;SDS011;18261;53.648;9.910;2024-02-16T10:06:07;8.02;;;2.90;;
31652;SDS011;18261;53.648;9.910;2024-02-16T10:08:34;9.23;;;3.28;;
31652;SDS011;18261;53.648;9.910;2024-02-16T10:11:01;7.20;;;2.90;;
31652;SDS011;18261;53.648;9.910;2024-02-16T10:13:27;11.45;;;3.67;;
31652;SDS011;18261;53.648;9.910;2024-02-16T10:16:03;13.07;;;3.80;;
31652;SDS011;18261;53.648;9.910;2024-02-16T10:18:29;11.20;;;2.80;;
31652;SDS011;18261;53.648;9.910;2024-02-16T10:20:55;11.02;;;2.67;;
31652;SDS011;18261;53.648;9.910;2024-02-16T10:23:22;8.98;;;3.00;;
31652;SDS011;18261;53.648;9.910;2024-02-16T10:25:48;7.40;;;3.00;;
31652;SDS011;18261;53.648;9.910;2024-02-16T10:28:14;10.55;;;3.03;;
31652;SDS011;18261;53.648;9.910;2024-02-16T10:30:42;16.08;;;3.53;;
31652;SDS011;18261;53.648;9.910;2024-02-16T10:33:08;7.55;;;2.72;;
31652;SDS011;18261;53.648;9.910;2024-02-16T10:35:35;6.90;;;2.35;;
31652;SDS011;18261;53.648;9.910;2024-02-16T10:38:02;10.90;;;3.20;;
31652;SDS011;18261;53.648;9.910;2024-02-16T10:40:33;10.63;;;3.03;;
31652;SDS011;18261;53.648;9.910;2024-02-16T10:43:05;7.57;;;3.15;;
31652;SDS011;18261;53.648;9.910;2024-02-16T10:45:33;6.03;;;2.55;;
31652;SDS011;18261;53.648;9.910;2024-02-16T10:47:59;9.23;;;3.10;;
31652;SDS011;18261;53.648;9.910;2024-02-16T10:50:25;10.63;;;3.20;;
31652;SDS011;18261;53.648;9.910;2024-02-16T10:52:51;7.85;;;2.50;;
31652;SDS011;18261;53.648;9.910;2024-02-16T10:55:18;13.20;;;2.17;;
31652;SDS011;18261;53.648;9.910;2024-02-16T10:57:45;6.30;;;2.45;;
31652;SDS011;18261;53.648;9.910;2024-02-16T11:00:11;13.77;;;3.35;;
31652;SDS011;18261;53.648;9.910;2024-02-16T11:02:56;8.00;;;2.88;;
31652;SDS011;18261;53.648;9.910;2024-02-16T11:05:36;9.85;;;2.83;;
31652;SDS011;18261;53.648;9.910;2024-02-16T11:08:03;8.98;;;2.50;;
31652;SDS011;18261;53.648;9.910;2024-02-16T11:10:29;5.82;;;2.67;;
31652;SDS011;18261;53.648;9.910;2024-02-16T11:12:59;5.65;;;2.33;;
31652;SDS011;18261;53.648;9.910;2024-02-16T11:15:30;13.35;;;4.05;;
31652;SDS011;18261;53.648;9.910;2024-02-16T11:17:56;9.18;;;2.97;;
31652;SDS011;18261;53.648;9.910;2024-02-16T11:20:24;9.65;;;2.85;;
31652;SDS011;18261;53.648;9.910;2024-02-16T11:22:51;8.27;;;2.50;;
31652;SDS011;18261;53.648;9.910;2024-02-16T11:25:17;11.90;;;2.80;;
31652;SDS011;18261;53.648;9.910;2024-02-16T11:27:45;8.88;;;2.95;;
31652;SDS011;18261;53.648;9.910;2024-02-16T11:30:11;9.25;;;2.65;;
31652;SDS011;18261;53.648;9.910;2024-02-16T11:32:38;10.02;;;3.20;;
31652;SDS011;18261;53.648;9.910;2024-02-16T11:35:06;7.88;;;2.80;;
31652;SDS011;18261;53.648;9.910;2024-02-16T11:37:32;8.05;;;2.75;;
31652;SDS011;18261;53.648;9.910;2024-02-16T11:39:58;11.05;;;2.90;;
31652;SDS011;18261;53.648;9.910;2024-02-16T11:42:24;9.45;;;4.78;;
31652;SDS011;18261;53.648;9.910;2024-02-16T11:44:51;23.92;;;11.57;;
31652;SDS011;18261;53.648;9.910;2024-02-16T11:47:22;61.35;;;24.70;;
31652;SDS011;18261;53.648;9.910;2024-02-16T11:50:07;33.60;;;12.02;;
31652;SDS011;18261;53.648;9.910;2024-02-16T11:52:36;20.90;;;6.95;;
31652;SDS011;18261;53.648;9.910;2024-02-16T11:55:03;15.32;;;6.43;;
31652;SDS011;18261;53.648;9.910;2024-02-16T11:57:30;10.60;;;4.28;;
31652;SDS011;18261;53.648;9.910;2024-02-16T11:59:56;10.55;;;4.15;;
31652;SDS011;18261;53.648;9.910;2024-02-16T12:02:23;15.02;;;4.35;;
31652;SDS011;18261;53.648;9.910;2024-02-16T12:04:57;11.20;;;3.40;;
31652;SDS011;18261;53.648;9.910;2024-02-16T12:07:25;8.02;;;2.95;;
31652;SDS011;18261;53.648;9.910;2024-02-16T12:09:55;10.02;;;2.90;;
31652;SDS011;18261;53.648;9.910;2024-02-16T12:12:21;7.53;;;2.85;;
31652;SDS011;18261;53.648;9.910;2024-02-16T12:14:48;7.72;;;3.00;;
31652;SDS011;18261;53.648;9.910;2024-02-16T12:17:14;13.23;;;3.67;;
31652;SDS011;18261;53.648;9.910;2024-02-16T12:19:44;13.07;;;5.35;;
31652;SDS011;18261;53.648;9.910;2024-02-16T12:22:10;14.93;;;3.53;;
31652;SDS011;18261;53.648;9.910;2024-02-16T12:24:37;10.75;;;3.10;;
31652;SDS011;18261;53.648;9.910;2024-02-16T12:27:03;8.95;;;3.05;;
31652;SDS011;18261;53.648;9.910;2024-02-16T12:29:29;7.43;;;3.50;;
31652;SDS011;18261;53.648;9.910;2024-02-16T12:31:55;14.52;;;3.30;;
31652;SDS011;18261;53.648;9.910;2024-02-16T12:34:21;10.20;;;3.42;;
31652;SDS011;18261;53.648;9.910;2024-02-16T12:36:47;12.68;;;3.65;;
31652;SDS011;18261;53.648;9.910;2024-02-16T12:39:13;11.02;;;3.88;;
31652;SDS011;18261;53.648;9.910;2024-02-16T12:41:40;10.02;;;3.20;;
31652;SDS011;18261;53.648;9.910;2024-02-16T12:44:08;12.90;;;3.70;;
31652;SDS011;18261;53.648;9.910;2024-02-16T12:46:34;12.65;;;3.58;;
31652;SDS011;18261;53.648;9.910;2024-02-16T12:49:00;12.60;;;3.67;;
31652;SDS011;18261;53.648;9.910;2024-02-16T12:51:26;12.52;;;3.83;;
31652;SDS011;18261;53.648;9.910;2024-02-16T12:53:52;12.40;;;4.22;;
31652;SDS011;18261;53.648;9.910;2024-02-16T12:56:18;11.43;;;3.17;;
31652;SDS011;18261;53.648;9.910;2024-02-16T12:58:46;7.90;;;3.58;;
31652;SDS011;18261;53.648;9.910;2024-02-16T13:01:13;9.60;;;3.97;;
31652;SDS011;18261;53.648;9.910;2024-02-16T13:03:39;8.57;;;3.95;;
31652;SDS011;18261;53.648;9.910;2024-02-16T13:06:05;13.32;;;3.80;;
31652;SDS011;18261;53.648;9.910;2024-02-16T13:08:31;11.27;;;4.40;;
31652;SDS011;18261;53.648;9.910;2024-02-16T13:10:57;14.65;;;4.85;;
31652;SDS011;18261;53.648;9.910;2024-02-16T13:13:24;9.98;;;4.40;;
31652;SDS011;18261;53.648;9.910;2024-02-16T13:15:50;11.73;;;4.55;;
31652;SDS011;18261;53.648;9.910;2024-02-16T13:18:16;8.50;;;4.63;;
31652;SDS011;18261;53.648;9.910;2024-02-16T13:20:42;12.55;;;4.10;;
31652;SDS011;18261;53.648;9.910;2024-02-16T13:23:09;13.77;;;4.50;;
31652;SDS011;18261;53.648;9.910;2024-02-16T13:25:35;11.15;;;5.00;;
31652;SDS011;18261;53.648;9.910;2024-02-16T13:28:01;13.38;;;5.10;;
31652;SDS011;18261;53.648;9.910;2024-02-16T13:30:27;12.40;;;4.72;;
31652;SDS011;18261;53.648;9.910;2024-02-16T13:32:54;14.10;;;4.70;;
31652;SDS011;18261;53.648;9.910;2024-02-16T13:35:20;14.90;;;4.85;;
31652;SDS011;18261;53.648;9.910;2024-02-16T13:37:46;14.75;;;4.53;;
31652;SDS011;18261;53.648;9.910;2024-02-16T13:40:12;12.32;;;4.47;;
31652;SDS011;18261;53.648;9.910;2024-02-16T13:42:39;14.57;;;5.13;;
31652;SDS011;18261;53.648;9.910;2024-02-16T13:45:05;12.20;;;4.90;;
31652;SDS011;18261;53.648;9.910;2024-02-16T13:47:31;13.10;;;4.85;;
31652;SDS011;18261;53.648;9.910;2024-02-16T13:49:57;14.95;;;5.60;;
31652;SDS011;18261;53.648;9.910;2024-02-16T13:52:24;14.82;;;5.07;;
31652;SDS011;18261;53.648;9.910;2024-02-16T13:54:51;17.63;;;5.55;;
31652;SDS011;18261;53.648;9.910;2024-02-16T13:57:17;18.30;;;4.97;;
31652;SDS011;18261;53.648;9.910;2024-02-16T13:59:43;13.55;;;5.25;;
31652;SDS011;18261;53.648;9.910;2024-02-16T14:02:09;10.48;;;5.30;;
31652;SDS011;18261;53.648;9.910;2024-02-16T14:04:36;27.48;;;7.38;;
31652;SDS011;18261;53.648;9.910;2024-02-16T14:07:02;14.35;;;5.93;;
31652;SDS011;18261;53.648;9.910;2024-02-16T14:09:28;19.70;;;5.80;;
31652;SDS011;18261;53.648;9.910;2024-02-16T14:11:54;19.20;;;5.95;;
31652;SDS011;18261;53.648;9.910;2024-02-16T14:14:21;16.33;;;5.93;;
31652;SDS011;18261;53.648;9.910;2024-02-16T14:16:47;18.48;;;5.80;;
31652;SDS011;18261;53.648;9.910;2024-02-16T14:19:13;18.65;;;6.35;;
31652;SDS011;18261;53.648;9.910;2024-02-16T14:21:39;18.00;;;6.38;;
31652;SDS011;18261;53.648;9.910;2024-02-16T14:24:05;17.35;;;6.70;;
31652;SDS011;18261;53.648;9.910;2024-02-16T14:26:32;13.93;;;6.82;;
31652;SDS011;18261;53.648;9.910;2024-02-16T14:28:58;18.60;;;5.85;;
31652;SDS011;18261;53.648;9.910;2024-02-16T14:31:24;18.67;;;6.68;;
31652;SDS011;18261;53.648;9.910;2024-02-16T14:33:51;18.20;;;6.07;;